sensor_id;sensor_type;location;lat;lon;timestamp;pressure;altitude;pressure_sealevel;temperature;humidity
11053;BME280;55230;42.602;23.470;2023-05-24T00:00:40;93335.13;;;12.07;100.00
11053;BME280;55230;42.602;23.470;2023-05-24T00:03:07;93333.91;;;12.08;100.00
11053;BME280;55230;42.602;23.470;2023-05-24T00:05:35;93336.72;;;12.14;100.00
11053;BME280;55230;42.602;23.470;2023-05-24T00:08:02;93337.50;;;12.14;100.00
11053;BME280;55230;42.602;23.470;2023-05-24T00:10:28;93340.66;;;12.13;100.00
11053;BME280;55230;42.602;23.470;2023-05-24T00:12:55;93335.88;;;12.08;100.00
11053;BME280;55230;42.602;23.470;2023-05-24T00:15:22;93333.44;;;12.10;100.00
11053;BME280;55230;42.602;23.470;2023-05-24T00:17:48;93333.44;;;12.10;100.00
11053;BME280;55230;42.602;23.470;2023-05-24T00:20:15;93327.59;;;12.11;100.00
11053;BME280;55230;42.602;23.470;2023-05-24T00:22:46;93338.13;;;12.09;100.00
11053;BME280;55230;42.602;23.470;2023-05-24T00:25:12;93334.66;;;12.09;100.00
11053;BME280;55230;42.602;23.470;2023-05-24T00:27:39;93333.91;;;12.08;100.00
11053;BME280;55230;42.602;23.470;2023-05-24T00:30:06;93334.84;;;12.05;100.00
11053;BME280;55230;42.602;23.470;2023-05-24T00:32:32;93349.66;;;11.86;100.00
11053;BME280;55230;42.602;23.470;2023-05-24T00:34:59;93340.63;;;11.89;100.00
11053;BME280;55230;42.602;23.470;2023-05-24T00:37:25;93349.06;;;11.82;100.00
11053;BME280;55230;42.602;23.470;2023-05-24T00:39:54;93341.03;;;11.55;100.00
11053;BME280;55230;42.602;23.470;2023-05-24T00:42:21;93342.25;;;11.54;100.00
11053;BME280;55230;42.602;23.470;2023-05-24T00:44:47;93335.97;;;11.48;100.00
11053;BME280;55230;42.602;23.470;2023-05-24T00:47:14;93338.69;;;11.39;100.00
11053;BME280;55230;42.602;23.470;2023-05-24T00:49:41;93330.66;;;11.30;100.00
11053;BME280;55230;42.602;23.470;2023-05-24T00:52:07;93338.59;;;11.24;100.00
11053;BME280;55230;42.602;23.470;2023-05-24T00:54:34;93344.78;;;11.16;100.00
11053;BME280;55230;42.602;23.470;2023-05-24T00:57:02;93332.81;;;11.08;100.00
11053;BME280;55230;42.602;23.470;2023-05-24T00:59:28;93334.75;;;10.98;100.00
11053;BME280;55230;42.602;23.470;2023-05-24T01:01:55;93327.75;;;10.92;100.00
11053;BME280;55230;42.602;23.470;2023-05-24T01:04:22;93333.13;;;10.83;100.00
11053;BME280;55230;42.602;23.470;2023-05-24T01:06:50;93328.50;;;10.74;100.00
11053;BME280;55230;42.602;23.470;2023-05-24T01:09:22;93326.56;;;10.66;100.00
11053;BME280;55230;42.602;23.470;2023-05-24T01:11:54;93331.38;;;10.53;100.00
11053;BME280;55230;42.602;23.470;2023-05-24T01:14:26;93325.69;;;10.51;100.00
11053;BME280;55230;42.602;23.470;2023-05-24T01:16:55;93328.50;;;10.56;100.00
11053;BME280;55230;42.602;23.470;2023-05-24T01:22:07;93330.91;;;10.54;100.00
11053;BME280;55230;42.602;23.470;2023-05-24T01:24:40;93335.56;;;10.44;100.00
11053;BME280;55230;42.602;23.470;2023-05-24T01:27:11;93334.66;;;10.47;100.00
11053;BME280;55230;42.602;23.470;2023-05-24T01:29:38;93338.25;;;10.44;100.00
11053;BME280;55230;42.602;23.470;2023-05-24T01:32:05;93338.41;;;10.41;100.00
11053;BME280;55230;42.602;23.470;2023-05-24T01:34:32;93340.78;;;10.39;100.00
11053;BME280;55230;42.602;23.470;2023-05-24T01:36:58;93347.84;;;10.36;100.00
11053;BME280;55230;42.602;23.470;2023-05-24T01:39:26;93349.91;;;10.32;100.00
11053;BME280;55230;42.602;23.470;2023-05-24T01:41:56;93352.03;;;10.28;100.00
11053;BME280;55230;42.602;23.470;2023-05-24T01:44:28;93356.06;;;10.24;100.00
11053;BME280;55230;42.602;23.470;2023-05-24T01:47:00;93352.19;;;10.25;100.00
11053;BME280;55230;42.602;23.470;2023-05-24T01:49:28;93351.56;;;10.21;100.00
11053;BME280;55230;42.602;23.470;2023-05-24T01:51:57;93352.00;;;10.19;100.00
11053;BME280;55230;42.602;23.470;2023-05-24T01:54:25;93350.94;;;10.17;100.00
11053;BME280;55230;42.602;23.470;2023-05-24T01:56:52;93342.41;;;10.09;100.00
11053;BME280;55230;42.602;23.470;2023-05-24T01:59:19;93343.47;;;10.12;100.00
11053;BME280;55230;42.602;23.470;2023-05-24T02:01:48;93338.81;;;10.12;100.00
11053;BME280;55230;42.602;23.470;2023-05-24T02:04:15;93335.81;;;10.10;100.00
11053;BME280;55230;42.602;23.470;2023-05-24T02:06:41;93333.38;;;10.03;100.00
11053;BME280;55230;42.602;23.470;2023-05-24T02:09:08;93327.25;;;10.03;100.00
11053;BME280;55230;42.602;23.470;2023-05-24T02:11:34;93329.94;;;10.03;100.00
11053;BME280;55230;42.602;23.470;2023-05-24T02:14:01;93324.69;;;9.99;100.00
11053;BME280;55230;42.602;23.470;2023-05-24T02:16:27;93326.38;;;10.06;100.00
11053;BME280;55230;42.602;23.470;2023-05-24T02:18:56;93327.09;;;10.06;100.00
11053;BME280;55230;42.602;23.470;2023-05-24T02:21:22;93322.06;;;10.08;100.00
11053;BME280;55230;42.602;23.470;2023-05-24T02:23:49;93325.06;;;10.10;100.00
11053;BME280;55230;42.602;23.470;2023-05-24T02:26:16;93324.47;;;10.15;100.00
11053;BME280;55230;42.602;23.470;2023-05-24T02:28:43;93321.16;;;10.11;100.00
11053;BME280;55230;42.602;23.470;2023-05-24T02:31:10;93318.91;;;10.10;100.00
11053;BME280;55230;42.602;23.470;2023-05-24T02:33:36;93319.38;;;10.17;100.00
11053;BME280;55230;42.602;23.470;2023-05-24T02:36:04;93323.84;;;10.20;100.00
11053;BME280;55230;42.602;23.470;2023-05-24T02:38:31;93321.16;;;10.20;100.00
11053;BME280;55230;42.602;23.470;2023-05-24T02:40:57;93325.78;;;10.20;100.00
11053;BME280;55230;42.602;23.470;2023-05-24T02:43:24;93320.84;;;10.18;100.00
11053;BME280;55230;42.602;23.470;2023-05-24T02:45:50;93332.41;;;10.19;100.00
11053;BME280;55230;42.602;23.470;2023-05-24T02:48:16;93326.69;;;10.17;100.00
11053;BME280;55230;42.602;23.470;2023-05-24T02:50:43;93319.81;;;10.16;100.00
11053;BME280;55230;42.602;23.470;2023-05-24T02:53:11;93325.34;;;10.12;100.00
11053;BME280;55230;42.602;23.470;2023-05-24T02:55:37;93325.31;;;10.03;100.00
11053;BME280;55230;42.602;23.470;2023-05-24T02:58:04;93328.94;;;10.09;100.00
11053;BME280;55230;42.602;23.470;2023-05-24T03:00:32;93325.34;;;10.12;100.00
11053;BME280;55230;42.602;23.470;2023-05-24T03:02:58;93321.75;;;10.15;100.00
11053;BME280;55230;42.602;23.470;2023-05-24T03:05:27;93322.38;;;10.19;100.00
11053;BME280;55230;42.602;23.470;2023-05-24T03:07:53;93320.25;;;10.23;100.00
11053;BME280;55230;42.602;23.470;2023-05-24T03:10:22;93318.78;;;10.31;100.00
11053;BME280;55230;42.602;23.470;2023-05-24T03:12:48;93321.31;;;10.44;100.00
11053;BME280;55230;42.602;23.470;2023-05-24T03:15:15;93320.88;;;10.55;100.00
11053;BME280;55230;42.602;23.470;2023-05-24T03:17:41;93327.31;;;10.66;100.00
11053;BME280;55230;42.602;23.470;2023-05-24T03:20:08;93336.13;;;10.76;100.00
11053;BME280;55230;42.602;23.470;2023-05-24T03:22:35;93336.75;;;10.62;100.00
11053;BME280;55230;42.602;23.470;2023-05-24T03:25:02;93342.75;;;10.66;100.00
11053;BME280;55230;42.602;23.470;2023-05-24T03:27:30;93346.16;;;10.84;100.00
11053;BME280;55230;42.602;23.470;2023-05-24T03:29:56;93347.94;;;11.05;100.00
11053;BME280;55230;42.602;23.470;2023-05-24T03:32:23;93353.78;;;11.13;100.00
11053;BME280;55230;42.602;23.470;2023-05-24T03:34:49;93352.09;;;11.33;100.00
11053;BME280;55230;42.602;23.470;2023-05-24T03:37:16;93354.47;;;11.31;100.00
11053;BME280;55230;42.602;23.470;2023-05-24T03:39:42;93358.00;;;11.55;100.00
11053;BME280;55230;42.602;23.470;2023-05-24T03:42:09;93357.84;;;12.24;100.00
11053;BME280;55230;42.602;23.470;2023-05-24T03:44:36;93362.38;;;13.04;100.00
11053;BME280;55230;42.602;23.470;2023-05-24T03:47:04;93371.53;;;13.79;100.00
11053;BME280;55230;42.602;23.470;2023-05-24T03:49:30;93382.69;;;14.50;99.69
11053;BME280;55230;42.602;23.470;2023-05-24T03:51:57;93383.69;;;15.13;95.87
11053;BME280;55230;42.602;23.470;2023-05-24T03:54:23;93384.59;;;15.81;90.78
11053;BME280;55230;42.602;23.470;2023-05-24T03:56:50;93381.00;;;16.38;87.91
11053;BME280;55230;42.602;23.470;2023-05-24T03:59:17;93379.13;;;17.02;85.27
11053;BME280;55230;42.602;23.470;2023-05-24T04:01:45;93383.19;;;17.46;82.43
11053;BME280;55230;42.602;23.470;2023-05-24T04:04:12;93370.63;;;17.98;77.46
11053;BME280;55230;42.602;23.470;2023-05-24T04:06:38;93386.50;;;18.27;74.84
11053;BME280;55230;42.602;23.470;2023-05-24T04:09:05;93383.53;;;17.75;80.02
11053;BME280;55230;42.602;23.470;2023-05-24T04:11:34;93386.91;;;17.43;79.82
11053;BME280;55230;42.602;23.470;2023-05-24T04:14:00;93387.56;;;16.51;83.25
11053;BME280;55230;42.602;23.470;2023-05-24T04:16:27;93381.09;;;16.12;86.90
11053;BME280;55230;42.602;23.470;2023-05-24T04:18:57;93389.53;;;16.14;85.28
11053;BME280;55230;42.602;23.470;2023-05-24T04:21:25;93386.53;;;16.12;85.29
11053;BME280;55230;42.602;23.470;2023-05-24T04:23:51;93390.28;;;16.51;83.45
11053;BME280;55230;42.602;23.470;2023-05-24T04:26:18;93398.88;;;16.86;81.19
11053;BME280;55230;42.602;23.470;2023-05-24T04:28:45;93394.78;;;16.65;81.72
11053;BME280;55230;42.602;23.470;2023-05-24T04:31:12;93388.69;;;17.51;76.23
11053;BME280;55230;42.602;23.470;2023-05-24T04:33:39;93390.19;;;16.40;79.35
11053;BME280;55230;42.602;23.470;2023-05-24T04:36:08;93396.81;;;16.70;76.95
11053;BME280;55230;42.602;23.470;2023-05-24T04:38:35;93391.91;;;16.01;82.23
11053;BME280;55230;42.602;23.470;2023-05-24T04:41:03;93399.13;;;15.47;85.64
11053;BME280;55230;42.602;23.470;2023-05-24T04:43:29;93395.22;;;15.54;87.55
11053;BME280;55230;42.602;23.470;2023-05-24T04:45:56;93403.06;;;15.72;87.24
11053;BME280;55230;42.602;23.470;2023-05-24T04:48:23;93403.03;;;16.34;83.32
11053;BME280;55230;42.602;23.470;2023-05-24T04:50:49;93417.75;;;16.48;81.79
11053;BME280;55230;42.602;23.470;2023-05-24T04:53:18;93419.06;;;16.63;80.28
11053;BME280;55230;42.602;23.470;2023-05-24T04:55:44;93421.38;;;17.46;76.29
11053;BME280;55230;42.602;23.470;2023-05-24T04:58:11;93422.75;;;17.19;77.41
11053;BME280;55230;42.602;23.470;2023-05-24T05:00:37;93432.88;;;18.16;71.67
11053;BME280;55230;42.602;23.470;2023-05-24T05:03:04;93427.94;;;18.53;72.09
11053;BME280;55230;42.602;23.470;2023-05-24T05:05:30;93428.84;;;18.94;66.55
11053;BME280;55230;42.602;23.470;2023-05-24T05:08:00;93424.41;;;18.69;68.07
11053;BME280;55230;42.602;23.470;2023-05-24T05:10:31;93424.63;;;19.50;65.11
11053;BME280;55230;42.602;23.470;2023-05-24T05:12:59;93425.22;;;19.79;61.19
11053;BME280;55230;42.602;23.470;2023-05-24T05:15:29;93426.72;;;20.15;60.68
11053;BME280;55230;42.602;23.470;2023-05-24T05:17:57;93424.66;;;18.71;66.81
11053;BME280;55230;42.602;23.470;2023-05-24T05:20:27;93420.97;;;18.08;72.69
11053;BME280;55230;42.602;23.470;2023-05-24T05:22:53;93413.03;;;17.99;72.30
11053;BME280;55230;42.602;23.470;2023-05-24T05:25:20;93414.25;;;18.64;68.04
11053;BME280;55230;42.602;23.470;2023-05-24T05:27:48;93405.84;;;18.46;71.18
11053;BME280;55230;42.602;23.470;2023-05-24T05:30:16;93413.28;;;17.84;74.59
11053;BME280;55230;42.602;23.470;2023-05-24T05:32:43;93407.69;;;17.23;77.76
11053;BME280;55230;42.602;23.470;2023-05-24T05:35:09;93413.72;;;16.85;83.18
11053;BME280;55230;42.602;23.470;2023-05-24T05:37:36;93408.41;;;17.18;83.82
11053;BME280;55230;42.602;23.470;2023-05-24T05:40:02;93425.16;;;16.95;85.27
11053;BME280;55230;42.602;23.470;2023-05-24T05:42:29;93416.84;;;16.62;86.43
11053;BME280;55230;42.602;23.470;2023-05-24T05:44:57;93421.19;;;16.17;90.74
11053;BME280;55230;42.602;23.470;2023-05-24T05:47:23;93429.41;;;15.91;94.02
11053;BME280;55230;42.602;23.470;2023-05-24T05:49:50;93439.34;;;16.31;91.68
11053;BME280;55230;42.602;23.470;2023-05-24T05:52:16;93442.81;;;17.05;85.70
11053;BME280;55230;42.602;23.470;2023-05-24T05:54:43;93445.50;;;15.95;92.89
11053;BME280;55230;42.602;23.470;2023-05-24T05:57:10;93433.63;;;16.24;93.25
11053;BME280;55230;42.602;23.470;2023-05-24T05:59:38;93421.59;;;16.41;93.88
11053;BME280;55230;42.602;23.470;2023-05-24T06:02:06;93432.25;;;16.39;93.05
11053;BME280;55230;42.602;23.470;2023-05-24T06:04:33;93436.88;;;16.64;91.75
11053;BME280;55230;42.602;23.470;2023-05-24T06:07:00;93429.38;;;16.54;91.58
11053;BME280;55230;42.602;23.470;2023-05-24T06:09:26;93439.56;;;16.59;90.95
11053;BME280;55230;42.602;23.470;2023-05-24T06:11:53;93440.59;;;16.30;92.65
11053;BME280;55230;42.602;23.470;2023-05-24T06:14:24;93447.31;;;16.71;91.73
11053;BME280;55230;42.602;23.470;2023-05-24T06:16:56;93457.31;;;16.85;90.08
11053;BME280;55230;42.602;23.470;2023-05-24T06:19:24;93454.25;;;17.20;88.12
11053;BME280;55230;42.602;23.470;2023-05-24T06:21:51;93445.53;;;17.10;90.51
11053;BME280;55230;42.602;23.470;2023-05-24T06:24:17;93448.19;;;16.94;88.05
11053;BME280;55230;42.602;23.470;2023-05-24T06:26:44;93445.44;;;16.88;90.53
11053;BME280;55230;42.602;23.470;2023-05-24T06:29:11;93444.59;;;17.24;86.21
11053;BME280;55230;42.602;23.470;2023-05-24T06:31:38;93448.22;;;16.99;87.90
11053;BME280;55230;42.602;23.470;2023-05-24T06:34:04;93445.44;;;16.88;89.35
11053;BME280;55230;42.602;23.470;2023-05-24T06:36:32;93446.31;;;16.69;90.25
11053;BME280;55230;42.602;23.470;2023-05-24T06:39:00;93448.75;;;17.09;89.12
11053;BME280;55230;42.602;23.470;2023-05-24T06:41:26;93452.47;;;17.11;88.14
11053;BME280;55230;42.602;23.470;2023-05-24T06:43:53;93450.50;;;17.17;88.57
11053;BME280;55230;42.602;23.470;2023-05-24T06:46:19;93446.56;;;17.18;88.00
11053;BME280;55230;42.602;23.470;2023-05-24T06:48:48;93442.00;;;17.58;85.98
11053;BME280;55230;42.602;23.470;2023-05-24T06:51:14;93440.25;;;17.55;84.88
11053;BME280;55230;42.602;23.470;2023-05-24T06:53:42;93441.50;;;17.59;83.12
11053;BME280;55230;42.602;23.470;2023-05-24T06:56:09;93443.78;;;17.83;81.73
11053;BME280;55230;42.602;23.470;2023-05-24T06:58:35;93440.84;;;18.03;82.54
11053;BME280;55230;42.602;23.470;2023-05-24T07:01:02;93442.56;;;18.11;81.98
11053;BME280;55230;42.602;23.470;2023-05-24T07:03:29;93446.53;;;18.21;81.79
11053;BME280;55230;42.602;23.470;2023-05-24T07:05:55;93438.31;;;17.83;81.64
11053;BME280;55230;42.602;23.470;2023-05-24T07:08:22;93441.56;;;18.09;80.07
11053;BME280;55230;42.602;23.470;2023-05-24T07:10:49;93442.31;;;18.04;80.25
11053;BME280;55230;42.602;23.470;2023-05-24T07:13:17;93441.34;;;18.40;81.40
11053;BME280;55230;42.602;23.470;2023-05-24T07:15:44;93440.84;;;18.36;77.36
11053;BME280;55230;42.602;23.470;2023-05-24T07:18:11;93445.81;;;18.10;78.40
11053;BME280;55230;42.602;23.470;2023-05-24T07:20:37;93447.03;;;18.36;79.22
11053;BME280;55230;42.602;23.470;2023-05-24T07:23:04;93444.06;;;18.29;79.16
11053;BME280;55230;42.602;23.470;2023-05-24T07:25:31;93452.50;;;18.53;75.96
11053;BME280;55230;42.602;23.470;2023-05-24T07:27:59;93454.00;;;18.60;75.51
11053;BME280;55230;42.602;23.470;2023-05-24T07:30:25;93454.13;;;19.00;72.67
11053;BME280;55230;42.602;23.470;2023-05-24T07:32:52;93449.28;;;18.55;72.35
11053;BME280;55230;42.602;23.470;2023-05-24T07:35:19;93451.97;;;18.77;73.48
11053;BME280;55230;42.602;23.470;2023-05-24T07:37:46;93451.50;;;18.62;73.49
11053;BME280;55230;42.602;23.470;2023-05-24T07:40:13;93451.66;;;18.97;70.06
11053;BME280;55230;42.602;23.470;2023-05-24T07:42:39;93450.91;;;19.02;71.35
11053;BME280;55230;42.602;23.470;2023-05-24T07:45:08;93456.59;;;19.09;70.77
11053;BME280;55230;42.602;23.470;2023-05-24T07:47:35;93453.84;;;19.15;67.51
11053;BME280;55230;42.602;23.470;2023-05-24T07:50:02;93453.63;;;19.07;71.03
11053;BME280;55230;42.602;23.470;2023-05-24T07:52:29;93455.19;;;19.60;67.36
11053;BME280;55230;42.602;23.470;2023-05-24T07:54:55;93452.31;;;19.36;65.59
11053;BME280;55230;42.602;23.470;2023-05-24T07:57:22;93451.66;;;19.71;65.78
11053;BME280;55230;42.602;23.470;2023-05-24T07:59:48;93451.53;;;19.87;61.54
11053;BME280;55230;42.602;23.470;2023-05-24T08:02:16;93462.28;;;19.80;57.84
11053;BME280;55230;42.602;23.470;2023-05-24T08:04:43;93461.47;;;20.31;60.11
11053;BME280;55230;42.602;23.470;2023-05-24T08:07:10;93453.78;;;20.29;60.50
11053;BME280;55230;42.602;23.470;2023-05-24T08:09:36;93453.72;;;20.00;61.33
11053;BME280;55230;42.602;23.470;2023-05-24T08:12:03;93453.25;;;20.31;56.55
11053;BME280;55230;42.602;23.470;2023-05-24T08:14:30;93455.91;;;20.07;54.37
11053;BME280;55230;42.602;23.470;2023-05-24T08:16:57;93459.66;;;20.39;56.21
11053;BME280;55230;42.602;23.470;2023-05-24T08:19:26;93458.06;;;20.19;54.78
11053;BME280;55230;42.602;23.470;2023-05-24T08:21:53;93455.19;;;20.01;54.02
11053;BME280;55230;42.602;23.470;2023-05-24T08:24:20;93448.84;;;20.22;55.65
11053;BME280;55230;42.602;23.470;2023-05-24T08:26:47;93453.88;;;20.48;51.35
11053;BME280;55230;42.602;23.470;2023-05-24T08:29:15;93445.34;;;20.57;53.57
11053;BME280;55230;42.602;23.470;2023-05-24T08:31:42;93451.28;;;21.09;50.43
11053;BME280;55230;42.602;23.470;2023-05-24T08:34:09;93455.50;;;20.86;53.40
11053;BME280;55230;42.602;23.470;2023-05-24T08:36:38;93453.66;;;20.70;55.10
11053;BME280;55230;42.602;23.470;2023-05-24T08:39:06;93452.53;;;20.84;53.49
11053;BME280;55230;42.602;23.470;2023-05-24T08:41:33;93448.53;;;20.85;55.52
11053;BME280;55230;42.602;23.470;2023-05-24T08:44:01;93453.72;;;20.89;52.19
11053;BME280;55230;42.602;23.470;2023-05-24T08:46:30;93452.38;;;21.25;54.92
11053;BME280;55230;42.602;23.470;2023-05-24T08:48:57;93452.16;;;21.84;51.58
11053;BME280;55230;42.602;23.470;2023-05-24T08:51:24;93446.78;;;21.54;47.50
11053;BME280;55230;42.602;23.470;2023-05-24T08:53:52;93447.41;;;21.23;45.03
11053;BME280;55230;42.602;23.470;2023-05-24T08:56:20;93453.00;;;21.36;45.13
11053;BME280;55230;42.602;23.470;2023-05-24T08:58:47;93440.28;;;21.76;48.19
11053;BME280;55230;42.602;23.470;2023-05-24T09:01:15;93434.31;;;22.09;45.94
11053;BME280;55230;42.602;23.470;2023-05-24T09:03:42;93441.41;;;22.18;47.93
11053;BME280;55230;42.602;23.470;2023-05-24T09:06:09;93436.53;;;22.29;47.35
11053;BME280;55230;42.602;23.470;2023-05-24T09:08:36;93431.97;;;22.63;45.66
11053;BME280;55230;42.602;23.470;2023-05-24T09:11:04;93439.56;;;22.57;42.00
11053;BME280;55230;42.602;23.470;2023-05-24T09:13:32;93439.78;;;22.59;39.90
11053;BME280;55230;42.602;23.470;2023-05-24T09:15:59;93435.63;;;22.21;41.30
11053;BME280;55230;42.602;23.470;2023-05-24T09:18:26;93438.03;;;22.75;39.04
11053;BME280;55230;42.602;23.470;2023-05-24T09:20:53;93440.66;;;22.36;39.58
11053;BME280;55230;42.602;23.470;2023-05-24T09:23:19;93432.91;;;22.66;40.45
11053;BME280;55230;42.602;23.470;2023-05-24T09:25:46;93442.13;;;22.55;42.40
11053;BME280;55230;42.602;23.470;2023-05-24T09:28:15;93433.66;;;22.35;42.57
11053;BME280;55230;42.602;23.470;2023-05-24T09:30:43;93435.03;;;22.28;41.35
11053;BME280;55230;42.602;23.470;2023-05-24T09:33:10;93431.13;;;22.37;41.05
11053;BME280;55230;42.602;23.470;2023-05-24T09:35:38;93429.06;;;22.43;41.10
11053;BME280;55230;42.602;23.470;2023-05-24T09:38:14;93427.31;;;22.58;39.71
11053;BME280;55230;42.602;23.470;2023-05-24T09:40:42;93427.78;;;22.88;40.18
11053;BME280;55230;42.602;23.470;2023-05-24T09:43:09;93432.56;;;23.27;39.22
11053;BME280;55230;42.602;23.470;2023-05-24T09:45:43;93430.53;;;22.88;39.82
11053;BME280;55230;42.602;23.470;2023-05-24T09:48:10;93421.88;;;22.53;39.47
11053;BME280;55230;42.602;23.470;2023-05-24T09:50:37;93428.38;;;22.37;39.96
11053;BME280;55230;42.602;23.470;2023-05-24T09:53:04;93423.16;;;22.97;38.39
11053;BME280;55230;42.602;23.470;2023-05-24T09:55:30;93413.25;;;23.66;40.88
11053;BME280;55230;42.602;23.470;2023-05-24T09:58:01;93417.44;;;24.48;39.70
11053;BME280;55230;42.602;23.470;2023-05-24T10:00:28;93416.13;;;25.18;37.67
11053;BME280;55230;42.602;23.470;2023-05-24T10:03:02;93421.72;;;24.15;36.66
11053;BME280;55230;42.602;23.470;2023-05-24T10:05:30;93422.69;;;23.58;35.77
11053;BME280;55230;42.602;23.470;2023-05-24T10:07:57;93416.81;;;23.87;36.31
11053;BME280;55230;42.602;23.470;2023-05-24T10:10:25;93419.56;;;23.87;37.08
11053;BME280;55230;42.602;23.470;2023-05-24T10:12:52;93416.66;;;23.59;37.23
11053;BME280;55230;42.602;23.470;2023-05-24T10:15:19;93415.13;;;23.84;36.32
11053;BME280;55230;42.602;23.470;2023-05-24T10:17:45;93416.34;;;24.10;35.87
11053;BME280;55230;42.602;23.470;2023-05-24T10:20:13;93414.25;;;24.64;35.64
11053;BME280;55230;42.602;23.470;2023-05-24T10:22:42;93411.41;;;23.22;36.56
11053;BME280;55230;42.602;23.470;2023-05-24T10:25:10;93415.56;;;23.75;39.82
11053;BME280;55230;42.602;23.470;2023-05-24T10:27:40;93412.19;;;24.37;38.07
11053;BME280;55230;42.602;23.470;2023-05-24T10:30:09;93412.03;;;24.22;36.22
11053;BME280;55230;42.602;23.470;2023-05-24T10:32:39;93408.84;;;24.72;35.91
11053;BME280;55230;42.602;23.470;2023-05-24T10:35:07;93416.84;;;23.74;35.96
11053;BME280;55230;42.602;23.470;2023-05-24T10:37:37;93410.53;;;23.27;37.10
11053;BME280;55230;42.602;23.470;2023-05-24T10:40:04;93400.03;;;23.65;36.50
11053;BME280;55230;42.602;23.470;2023-05-24T10:42:34;93403.91;;;23.82;35.48
11053;BME280;55230;42.602;23.470;2023-05-24T10:45:13;93399.69;;;24.36;37.81
11053;BME280;55230;42.602;23.470;2023-05-24T10:47:41;93394.47;;;24.94;35.44
11053;BME280;55230;42.602;23.470;2023-05-24T10:50:17;93390.19;;;24.85;33.24
11053;BME280;55230;42.602;23.470;2023-05-24T10:52:48;93398.81;;;24.41;33.53
11053;BME280;55230;42.602;23.470;2023-05-24T10:55:17;93384.00;;;24.72;33.51
11053;BME280;55230;42.602;23.470;2023-05-24T10:57:44;93387.97;;;24.84;33.49
11053;BME280;55230;42.602;23.470;2023-05-24T11:00:26;93388.53;;;23.87;33.99
11053;BME280;55230;42.602;23.470;2023-05-24T11:02:58;93381.38;;;24.05;35.58
11053;BME280;55230;42.602;23.470;2023-05-24T11:05:25;93393.69;;;23.90;32.51
11053;BME280;55230;42.602;23.470;2023-05-24T11:07:59;93385.06;;;23.73;30.61
11053;BME280;55230;42.602;23.470;2023-05-24T11:10:28;93382.09;;;23.84;31.35
11053;BME280;55230;42.602;23.470;2023-05-24T11:12:56;93376.84;;;24.28;33.52
11053;BME280;55230;42.602;23.470;2023-05-24T11:15:23;93373.00;;;24.51;31.97
11053;BME280;55230;42.602;23.470;2023-05-24T11:20:36;93382.41;;;25.04;31.95
11053;BME280;55230;42.602;23.470;2023-05-24T11:23:05;93382.06;;;24.39;32.26
11053;BME280;55230;42.602;23.470;2023-05-24T11:25:31;93379.81;;;24.30;31.53
11053;BME280;55230;42.602;23.470;2023-05-24T11:28:00;93380.00;;;24.73;31.58
11053;BME280;55230;42.602;23.470;2023-05-24T11:30:30;93376.09;;;24.27;31.74
11053;BME280;55230;42.602;23.470;2023-05-24T11:32:58;93372.19;;;23.89;32.76
11053;BME280;55230;42.602;23.470;2023-05-24T11:35:25;93368.97;;;23.31;33.96
11053;BME280;55230;42.602;23.470;2023-05-24T11:37:59;93370.00;;;23.87;33.99
11053;BME280;55230;42.602;23.470;2023-05-24T11:40:28;93373.25;;;24.20;34.01
11053;BME280;55230;42.602;23.470;2023-05-24T11:42:55;93364.63;;;24.64;32.84
11053;BME280;55230;42.602;23.470;2023-05-24T11:45:27;93365.75;;;25.25;34.22
11053;BME280;55230;42.602;23.470;2023-05-24T11:47:57;93367.25;;;25.26;31.42
11053;BME280;55230;42.602;23.470;2023-05-24T11:50:23;93363.91;;;25.20;33.15
11053;BME280;55230;42.602;23.470;2023-05-24T11:52:50;93361.56;;;25.67;32.96
11053;BME280;55230;42.602;23.470;2023-05-24T11:55:22;93357.59;;;25.98;31.91
11053;BME280;55230;42.602;23.470;2023-05-24T11:57:52;93356.19;;;25.62;34.08
11053;BME280;55230;42.602;23.470;2023-05-24T12:00:23;93360.16;;;24.54;33.02
11053;BME280;55230;42.602;23.470;2023-05-24T12:02:49;93358.91;;;24.83;32.36
11053;BME280;55230;42.602;23.470;2023-05-24T12:05:17;93341.56;;;24.26;33.26
11053;BME280;55230;42.602;23.470;2023-05-24T12:07:44;93347.13;;;24.82;34.42
11053;BME280;55230;42.602;23.470;2023-05-24T12:10:12;93342.22;;;25.24;33.33
11053;BME280;55230;42.602;23.470;2023-05-24T12:12:41;93348.94;;;25.36;32.13
11053;BME280;55230;42.602;23.470;2023-05-24T12:15:09;93345.53;;;25.30;32.29
11053;BME280;55230;42.602;23.470;2023-05-24T12:17:36;93339.13;;;25.78;32.71
11053;BME280;55230;42.602;23.470;2023-05-24T12:20:03;93339.97;;;26.09;31.86
11053;BME280;55230;42.602;23.470;2023-05-24T12:22:30;93330.94;;;26.39;32.78
11053;BME280;55230;42.602;23.470;2023-05-24T12:24:57;93327.44;;;26.61;31.87
11053;BME280;55230;42.602;23.470;2023-05-24T12:27:24;93326.47;;;26.96;31.25
11053;BME280;55230;42.602;23.470;2023-05-24T12:29:50;93326.31;;;26.18;32.59
11053;BME280;55230;42.602;23.470;2023-05-24T12:32:18;93322.25;;;26.04;34.67
11053;BME280;55230;42.602;23.470;2023-05-24T12:34:48;93319.69;;;26.21;33.11
11053;BME280;55230;42.602;23.470;2023-05-24T12:37:17;93316.38;;;26.31;33.31
11053;BME280;55230;42.602;23.470;2023-05-24T12:39:51;93325.53;;;25.01;34.01
11053;BME280;55230;42.602;23.470;2023-05-24T12:42:18;93316.56;;;25.08;33.74
11053;BME280;55230;42.602;23.470;2023-05-24T12:44:47;93315.44;;;24.48;34.94
11053;BME280;55230;42.602;23.470;2023-05-24T12:47:16;93316.47;;;24.17;33.90
11053;BME280;55230;42.602;23.470;2023-05-24T12:49:44;93321.03;;;24.35;34.42
11053;BME280;55230;42.602;23.470;2023-05-24T12:52:11;93313.69;;;24.37;35.15
11053;BME280;55230;42.602;23.470;2023-05-24T12:54:37;93315.63;;;24.50;36.83